createdAt,value
2024-03-06T00:01:48.385Z,6.40
2024-03-06T00:04:20.134Z,6.37
2024-03-06T00:06:48.290Z,6.35
2024-03-06T00:09:16.233Z,6.35
2024-03-06T00:11:44.334Z,6.32
2024-03-06T00:14:13.645Z,6.33
2024-03-06T00:16:44.723Z,6.34
2024-03-06T00:19:12.941Z,6.33
2024-03-06T00:21:40.769Z,6.37
2024-03-06T00:24:09.116Z,6.37
2024-03-06T00:26:37.006Z,6.36
2024-03-06T00:29:04.895Z,6.34
2024-03-06T00:31:33.376Z,6.36
2024-03-06T00:34:02.642Z,6.29
2024-03-06T00:36:30.856Z,6.33
2024-03-06T00:38:58.742Z,6.40
2024-03-06T00:41:26.580Z,6.40
2024-03-06T00:43:54.456Z,6.44
2024-03-06T00:46:22.342Z,6.38
2024-03-06T00:48:50.196Z,6.33
2024-03-06T00:51:22.456Z,6.36
2024-03-06T00:53:52.349Z,6.38
2024-03-06T00:56:20.348Z,6.37
2024-03-06T00:58:48.320Z,6.34
2024-03-06T01:01:17.815Z,6.33
2024-03-06T01:03:45.675Z,6.30
2024-03-06T01:06:13.644Z,6.27
2024-03-06T01:08:43.439Z,6.27
2024-03-06T01:11:15.496Z,6.26
2024-03-06T01:13:43.461Z,6.27
2024-03-06T01:16:11.404Z,6.21
2024-03-06T01:18:39.355Z,6.21
2024-03-06T01:21:07.234Z,6.23
2024-03-06T01:23:35.090Z,6.12
2024-03-06T01:26:04.480Z,6.12
2024-03-06T01:28:32.433Z,6.12
2024-03-06T01:31:00.600Z,6.08
2024-03-06T01:33:28.507Z,6.00
2024-03-06T01:35:56.448Z,6.00
2024-03-06T01:38:24.290Z,5.95
2024-03-06T01:40:52.211Z,5.97
2024-03-06T01:43:26.682Z,5.98
2024-03-06T01:45:55.596Z,5.95
2024-03-06T01:48:26.517Z,5.90
2024-03-06T01:50:55.999Z,5.91
2024-03-06T01:53:25.615Z,5.91
2024-03-06T01:55:53.815Z,5.88
2024-03-06T01:58:25.055Z,5.87
2024-03-06T02:00:53.429Z,5.85
2024-03-06T02:03:23.155Z,5.85
2024-03-06T02:05:52.782Z,5.82
2024-03-06T02:08:20.666Z,5.90
2024-03-06T02:10:48.931Z,5.91
2024-03-06T02:13:17.050Z,5.90
2024-03-06T02:15:46.980Z,5.94
2024-03-06T02:18:15.185Z,5.98
2024-03-06T02:20:44.648Z,5.96
2024-03-06T02:23:12.554Z,5.97
2024-03-06T02:25:40.462Z,5.95
2024-03-06T02:28:08.309Z,5.95
2024-03-06T02:30:38.242Z,5.90
2024-03-06T02:33:07.521Z,5.94
2024-03-06T02:35:36.176Z,5.98
2024-03-06T02:38:06.728Z,5.98
2024-03-06T02:40:35.451Z,6.00
2024-03-06T02:43:03.755Z,5.99
2024-03-06T02:45:31.720Z,5.93
2024-03-06T02:47:59.688Z,5.89
2024-03-06T02:50:27.645Z,5.90
2024-03-06T02:52:55.685Z,5.89
2024-03-06T02:55:25.960Z,5.88
2024-03-06T02:57:53.808Z,5.84
2024-03-06T03:00:23.020Z,5.83
2024-03-06T03:02:50.907Z,5.83
2024-03-06T03:05:18.797Z,5.79
2024-03-06T03:07:46.759Z,5.73
2024-03-06T03:10:14.743Z,5.69
2024-03-06T03:12:44.150Z,5.67
2024-03-06T03:15:12.434Z,5.65
2024-03-06T03:17:40.315Z,5.63
2024-03-06T03:20:12.448Z,5.58
2024-03-06T03:22:40.564Z,5.48
2024-03-06T03:25:10.087Z,5.39
2024-03-06T03:27:39.211Z,5.38
2024-03-06T03:30:11.147Z,5.34
2024-03-06T03:32:39.732Z,5.35
2024-03-06T03:35:08.294Z,5.29
2024-03-06T03:37:36.460Z,5.24
2024-03-06T03:40:04.795Z,5.21
2024-03-06T03:42:32.872Z,5.18
2024-03-06T03:45:00.717Z,5.13
2024-03-06T03:47:29.925Z,5.11
2024-03-06T03:50:03.715Z,5.07
2024-03-06T03:52:42.593Z,4.98
2024-03-06T03:55:11.040Z,4.97
2024-03-06T03:57:38.941Z,4.94
2024-03-06T04:00:12.025Z,4.93
2024-03-06T04:02:42.197Z,4.85
2024-03-06T04:05:11.799Z,4.79
2024-03-06T04:07:40.080Z,4.75
2024-03-06T04:10:11.990Z,4.74
2024-03-06T04:12:40.889Z,4.70
2024-03-06T04:15:09.757Z,4.67
2024-03-06T04:17:37.987Z,4.63
2024-03-06T04:20:08.918Z,4.58
2024-03-06T04:22:36.886Z,4.59
2024-03-06T04:25:06.037Z,4.58
2024-03-06T04:27:34.196Z,4.59
2024-03-06T04:30:02.090Z,4.55
2024-03-06T04:32:29.939Z,4.49
2024-03-06T04:34:57.855Z,4.42
2024-03-06T04:37:27.748Z,4.34
2024-03-06T04:39:55.543Z,4.30
2024-03-06T04:42:23.370Z,4.31
2024-03-06T04:44:51.157Z,4.38
2024-03-06T04:47:20.404Z,4.41
2024-03-06T04:49:48.218Z,4.40
2024-03-06T04:52:15.987Z,4.38
2024-03-06T04:54:49.854Z,4.33
2024-03-06T04:57:17.918Z,4.32
2024-03-06T04:59:45.849Z,4.28
2024-03-06T05:02:13.709Z,4.21
2024-03-06T06:00:05.797Z,3.99
2024-03-06T06:02:39.505Z,4.00
2024-03-06T06:05:22.220Z,3.98
2024-03-06T06:07:52.389Z,3.98
2024-03-06T06:10:21.908Z,3.96
2024-03-06T06:12:50.936Z,3.92
2024-03-06T06:15:20.368Z,3.95
2024-03-06T06:17:48.413Z,3.90
2024-03-06T06:20:17.929Z,3.92
2024-03-06T06:22:46.144Z,3.95
2024-03-06T06:25:14.640Z,3.91
2024-03-06T06:27:42.498Z,3.91
2024-03-06T06:30:13.238Z,3.92
2024-03-06T06:32:43.730Z,3.98
2024-03-06T06:35:12.881Z,3.97
2024-03-06T06:37:41.216Z,4.05
2024-03-06T06:40:11.338Z,4.05
2024-03-06T06:42:39.842Z,4.01
2024-03-06T06:45:10.668Z,3.92
2024-03-06T06:47:40.614Z,3.95
2024-03-06T06:50:10.703Z,3.92
2024-03-06T06:52:38.610Z,4.02
2024-03-06T06:55:07.166Z,3.94
2024-03-06T06:57:35.053Z,3.96
2024-03-06T07:00:04.411Z,3.96
2024-03-06T07:02:32.563Z,3.89
2024-03-06T07:05:00.510Z,3.87
2024-03-06T07:07:29.798Z,4.01
2024-03-06T07:09:57.724Z,4.16
2024-03-06T07:12:26.182Z,4.21
2024-03-06T07:14:54.029Z,4.37
2024-03-06T07:17:21.911Z,4.36
2024-03-06T07:19:50.278Z,4.37
2024-03-06T07:22:18.502Z,4.32
2024-03-06T07:24:47.862Z,4.29
2024-03-06T07:27:15.693Z,4.24
2024-03-06T07:29:43.569Z,4.42
2024-03-06T07:32:11.952Z,4.40
2024-03-06T07:34:39.813Z,4.44
2024-03-06T07:37:07.618Z,4.65
2024-03-06T07:39:35.985Z,4.69
2024-03-06T07:42:05.716Z,4.54
2024-03-06T07:44:33.621Z,4.52
2024-03-06T07:47:01.682Z,4.57
2024-03-06T07:49:29.516Z,4.56
2024-03-06T07:51:58.177Z,4.69
2024-03-06T07:54:25.988Z,4.67
2024-03-06T07:56:54.755Z,4.64
2024-03-06T07:59:24.073Z,4.61
2024-03-06T08:01:52.352Z,4.81
2024-03-06T08:04:20.185Z,4.78
2024-03-06T08:06:48.004Z,4.66
2024-03-06T08:09:17.604Z,4.68
2024-03-06T08:11:45.565Z,4.81
2024-03-06T08:14:15.898Z,4.94
2024-03-06T08:16:45.316Z,5.29
2024-03-06T08:19:13.135Z,5.23
2024-03-06T08:21:40.954Z,5.81
2024-03-06T08:24:08.822Z,6.06
2024-03-06T08:26:36.761Z,6.50
2024-03-06T08:29:04.679Z,7.41
2024-03-06T08:31:33.481Z,7.25
2024-03-06T08:34:03.000Z,7.07
2024-03-06T08:36:30.965Z,7.51
2024-03-06T08:38:58.777Z,8.36
2024-03-06T08:41:26.765Z,8.96
2024-03-06T08:43:54.584Z,9.24
2024-03-06T08:46:22.378Z,9.68
2024-03-06T08:48:50.796Z,10.38
2024-03-06T08:51:20.014Z,9.92
2024-03-06T08:53:49.419Z,10.32
2024-03-06T08:56:17.346Z,10.34
2024-03-06T08:58:45.228Z,10.91
2024-03-06T09:01:13.785Z,11.42
2024-03-06T09:03:41.671Z,10.67
2024-03-06T09:06:09.759Z,10.81
2024-03-06T09:08:39.167Z,11.49
2024-03-06T09:11:07.473Z,12.05
2024-03-06T09:13:35.342Z,12.43
2024-03-06T09:16:03.223Z,11.98
2024-03-06T09:18:31.190Z,11.79
2024-03-06T09:20:59.205Z,12.27
2024-03-06T09:23:28.540Z,12.21
2024-03-06T09:25:57.802Z,12.07
2024-03-06T09:28:25.692Z,12.33
2024-03-06T09:30:53.487Z,13.19
2024-03-06T09:33:21.437Z,12.54
2024-03-06T09:35:49.461Z,12.99
2024-03-06T09:38:20.038Z,13.23
2024-03-06T09:40:50.162Z,13.31
2024-03-06T09:43:19.460Z,12.86
2024-03-06T09:45:50.844Z,13.21
2024-03-06T09:48:21.116Z,14.11
2024-03-06T09:50:51.391Z,13.56
2024-03-06T09:53:22.808Z,13.51
2024-03-06T09:55:52.576Z,14.33
2024-03-06T09:58:22.361Z,15.25
2024-03-06T10:00:52.528Z,15.25
2024-03-06T10:03:21.421Z,14.46
2024-03-06T10:05:49.368Z,14.65
2024-03-06T10:08:18.292Z,14.81
2024-03-06T10:10:47.255Z,14.98
2024-03-06T10:13:15.296Z,13.68
2024-03-06T10:15:44.689Z,14.78
2024-03-06T10:18:14.749Z,14.88
2024-03-06T10:20:45.853Z,15.19
2024-03-06T10:23:14.321Z,14.80
2024-03-06T10:25:45.539Z,15.33
2024-03-06T10:28:14.159Z,14.29
2024-03-06T10:30:44.677Z,15.62
2024-03-06T10:33:13.289Z,15.85
2024-03-06T10:35:43.078Z,16.72
2024-03-06T10:38:12.226Z,15.44
2024-03-06T10:40:41.586Z,16.54
2024-03-06T10:43:10.635Z,17.28
2024-03-06T10:45:47.384Z,17.73
2024-03-06T10:48:16.322Z,16.97
2024-03-06T10:50:45.941Z,16.89
2024-03-06T10:53:19.897Z,16.61
2024-03-06T10:55:52.223Z,16.52
2024-03-06T10:58:22.027Z,16.06
2024-03-06T11:00:53.597Z,16.28
2024-03-06T11:03:21.860Z,17.29
2024-03-06T11:05:52.350Z,18.06
2024-03-06T11:08:21.946Z,18.70
2024-03-06T11:10:50.036Z,18.38
2024-03-06T11:13:25.723Z,19.09
2024-03-06T11:15:58.942Z,19.07
2024-03-06T11:18:45.827Z,17.36
2024-03-06T11:21:32.883Z,16.58
2024-03-06T11:24:19.071Z,14.08
2024-03-06T11:26:50.196Z,14.98
2024-03-06T11:29:19.791Z,15.79
2024-03-06T11:32:17.202Z,17.12
2024-03-06T11:34:45.186Z,17.24
2024-03-06T11:37:13.128Z,15.91
2024-03-06T11:39:42.866Z,14.84
2024-03-06T11:42:11.140Z,15.46
2024-03-06T11:44:39.243Z,15.09
2024-03-06T11:47:09.793Z,14.05
2024-03-06T11:49:39.957Z,13.41
2024-03-06T11:52:10.787Z,13.71
2024-03-06T11:54:39.775Z,13.72
2024-03-06T11:57:07.960Z,13.12
2024-03-06T11:59:39.200Z,13.42
2024-03-06T12:02:08.271Z,13.25
2024-03-06T12:04:39.510Z,13.07
2024-03-06T12:07:10.551Z,13.40
2024-03-06T12:09:42.945Z,13.57
2024-03-06T12:12:13.177Z,13.87
2024-03-06T12:14:42.267Z,14.20
2024-03-06T12:17:15.159Z,15.08
2024-03-06T12:19:45.110Z,15.42
2024-03-06T12:22:15.616Z,15.65
2024-03-06T12:24:43.979Z,15.89
2024-03-06T12:27:13.827Z,15.97
2024-03-06T12:29:43.083Z,16.33
2024-03-06T12:32:20.365Z,16.24
2024-03-06T12:34:59.636Z,16.98
2024-03-06T12:37:33.423Z,17.07
2024-03-06T12:40:01.574Z,17.59
2024-03-06T12:42:29.937Z,17.34
2024-03-06T12:44:58.286Z,17.45
2024-03-06T12:47:26.370Z,17.43
2024-03-06T12:49:54.778Z,17.15
2024-03-06T12:52:22.641Z,16.94
2024-03-06T12:54:52.106Z,17.29
2024-03-06T12:57:19.979Z,16.67
2024-03-06T12:59:47.899Z,16.36
2024-03-06T13:02:15.730Z,16.84
2024-03-06T13:04:43.743Z,17.16
2024-03-06T13:07:11.671Z,16.60
2024-03-06T13:09:40.295Z,16.53
2024-03-06T13:12:10.335Z,15.93
2024-03-06T13:14:38.339Z,16.03
2024-03-06T13:17:07.395Z,15.09
2024-03-06T13:19:35.827Z,15.97
2024-03-06T13:22:05.894Z,16.57
2024-03-06T13:24:34.856Z,15.67
2024-03-06T13:27:02.950Z,16.25
2024-03-06T13:29:32.269Z,16.14
2024-03-06T13:32:00.779Z,16.69
2024-03-06T13:34:28.675Z,16.72
2024-03-06T13:36:56.987Z,16.47
2024-03-06T13:39:24.840Z,15.59
2024-03-06T13:41:53.189Z,15.66
2024-03-06T13:44:22.400Z,15.55
2024-03-06T13:46:51.643Z,16.33
2024-03-06T13:49:37.043Z,16.14
2024-03-06T13:52:06.187Z,16.21
2024-03-06T13:54:34.028Z,16.07
2024-03-06T13:57:03.451Z,16.75
2024-03-06T13:59:33.396Z,16.63
2024-03-06T14:02:04.093Z,17.12
2024-03-06T14:04:33.053Z,17.58
2024-03-06T14:07:01.150Z,16.96
2024-03-06T14:09:29.417Z,16.31
2024-03-06T14:11:57.998Z,16.24
2024-03-06T14:14:26.024Z,16.57
2024-03-06T14:16:54.023Z,16.83
2024-03-06T14:19:23.499Z,16.96
2024-03-06T14:21:51.454Z,16.45
2024-03-06T14:24:19.671Z,17.16
2024-03-06T14:26:47.518Z,16.80
2024-03-06T14:29:16.785Z,16.66
2024-03-06T14:31:44.679Z,16.32
2024-03-06T14:34:12.528Z,16.49
2024-03-06T14:36:43.454Z,16.87
2024-03-06T14:39:12.400Z,16.77
2024-03-06T14:41:40.319Z,16.41
2024-03-06T14:44:08.290Z,16.63
2024-03-06T14:46:36.293Z,16.49
2024-03-06T14:49:05.169Z,16.46
2024-03-06T14:51:33.032Z,16.39
2024-03-06T14:54:02.532Z,16.43
2024-03-06T14:56:32.044Z,16.58
2024-03-06T14:59:00.307Z,16.66
2024-03-06T15:01:28.254Z,16.44
2024-03-06T15:03:56.831Z,16.54
2024-03-06T15:06:25.028Z,16.55
2024-03-06T15:08:52.965Z,15.87
2024-03-06T15:11:24.409Z,14.28
2024-03-06T15:13:52.636Z,14.57
2024-03-06T15:16:20.520Z,15.31
2024-03-06T15:18:49.914Z,14.95
2024-03-06T15:21:18.212Z,15.18
2024-03-06T15:23:46.242Z,15.39
2024-03-06T15:26:14.268Z,15.19
2024-03-06T15:28:43.496Z,14.92
2024-03-06T15:31:11.518Z,15.10
2024-03-06T15:33:39.419Z,15.02
2024-03-06T15:36:07.639Z,14.97
2024-03-06T15:38:35.564Z,14.76
2024-03-06T15:41:03.719Z,13.94
2024-03-06T15:43:31.647Z,13.33
2024-03-06T15:46:00.912Z,13.74
2024-03-06T15:48:29.918Z,13.81
2024-03-06T15:50:58.214Z,13.94
2024-03-06T15:53:29.417Z,14.13
2024-03-06T15:55:57.844Z,13.78
2024-03-06T15:58:26.535Z,13.88
2024-03-06T16:00:59.382Z,14.08
2024-03-06T16:03:31.043Z,13.81
2024-03-06T16:06:07.276Z,13.84
2024-03-06T16:08:43.781Z,13.89
2024-03-06T16:11:12.051Z,13.60
2024-03-06T16:13:40.275Z,13.45
2024-03-06T16:16:09.406Z,13.47
2024-03-06T16:18:38.643Z,13.43
2024-03-06T16:21:07.868Z,13.24
2024-03-06T16:23:35.770Z,13.01
2024-03-06T16:26:03.800Z,12.79
2024-03-06T16:28:31.704Z,12.82
2024-03-06T16:30:59.525Z,12.79
2024-03-06T16:33:27.438Z,12.61
2024-03-06T16:35:56.786Z,12.79
2024-03-06T16:38:24.753Z,12.48
2024-03-06T16:40:52.598Z,12.53
2024-03-06T16:43:20.495Z,12.49
2024-03-06T16:45:49.029Z,12.63
2024-03-06T16:48:17.059Z,12.62
2024-03-06T16:50:45.033Z,12.63
2024-03-06T16:53:15.232Z,12.58
2024-03-06T16:55:43.944Z,12.37
2024-03-06T16:58:12.097Z,12.40
2024-03-06T17:00:40.060Z,12.33
2024-03-06T17:03:08.254Z,12.47
2024-03-06T17:06:01.627Z,12.43
2024-03-06T17:08:30.865Z,12.31
2024-03-06T17:10:59.205Z,12.29
2024-03-06T17:13:27.136Z,12.27
2024-03-06T17:15:55.925Z,12.13
2024-03-06T17:18:23.989Z,12.15
2024-03-06T17:20:52.374Z,12.13
2024-03-06T17:23:20.398Z,12.22
2024-03-06T17:25:49.744Z,12.24
2024-03-06T17:28:18.412Z,12.19
2024-03-06T17:30:47.272Z,12.22
2024-03-06T17:33:17.536Z,12.20
2024-03-06T17:35:46.728Z,12.17
2024-03-06T17:38:15.158Z,11.97
2024-03-06T17:40:44.415Z,12.02
2024-03-06T17:43:14.263Z,11.99
2024-03-06T17:45:42.306Z,11.91
2024-03-06T17:48:10.767Z,11.83
2024-03-06T17:50:38.784Z,11.81
2024-03-06T17:53:08.422Z,11.61
2024-03-06T17:55:36.445Z,11.57
2024-03-06T17:58:06.189Z,11.56
2024-03-06T18:00:36.345Z,11.57
2024-03-06T18:03:04.997Z,11.47
2024-03-06T18:05:33.063Z,11.41
2024-03-06T18:08:01.089Z,11.40
2024-03-06T18:10:28.976Z,11.39
2024-03-06T18:12:56.802Z,11.34
2024-03-06T18:15:24.781Z,11.28
2024-03-06T18:17:54.452Z,11.32
2024-03-06T18:20:22.973Z,11.19
2024-03-06T18:22:50.876Z,11.07
2024-03-06T18:25:18.980Z,11.09
2024-03-06T18:27:46.938Z,11.07
2024-03-06T18:30:15.768Z,11.04
2024-03-06T18:32:43.757Z,10.89
2024-03-06T18:35:13.154Z,10.83
2024-03-06T18:37:41.030Z,10.74
2024-03-06T18:40:09.756Z,10.64
2024-03-06T18:42:37.596Z,10.57
2024-03-06T18:45:06.226Z,10.55
2024-03-06T18:47:34.383Z,10.56
2024-03-06T18:50:04.856Z,10.49
2024-03-06T18:52:35.258Z,10.48
2024-03-06T18:55:03.819Z,10.34
2024-03-06T18:57:31.692Z,10.36
2024-03-06T18:59:59.588Z,10.34
2024-03-06T19:02:27.453Z,10.21
2024-03-06T19:04:55.497Z,10.22
2024-03-06T19:07:23.649Z,10.14
2024-03-06T19:09:53.135Z,10.04
2024-03-06T19:12:21.079Z,10.12
2024-03-06T19:14:49.248Z,9.97
2024-03-06T19:17:17.365Z,9.97
2024-03-06T19:19:45.572Z,9.88
2024-03-06T19:22:15.435Z,9.88
2024-03-06T19:24:44.155Z,9.87
2024-03-06T19:27:13.431Z,9.87
2024-03-06T19:29:41.435Z,9.80
2024-03-06T19:32:11.499Z,9.75
2024-03-06T19:34:39.684Z,9.62
2024-03-06T19:37:07.629Z,9.55
2024-03-06T19:39:36.211Z,9.56
2024-03-06T19:42:06.573Z,9.46
2024-03-06T19:44:36.036Z,9.46
2024-03-06T19:47:05.261Z,9.45
2024-03-06T19:49:35.027Z,9.37
2024-03-06T19:52:03.620Z,9.34
2024-03-06T19:54:33.232Z,9.19
2024-03-06T19:57:03.636Z,9.15
2024-03-06T19:59:31.783Z,9.13
2024-03-06T20:02:01.536Z,9.14
2024-03-06T20:04:29.448Z,9.02
2024-03-06T20:06:57.398Z,8.91
2024-03-06T20:09:26.509Z,8.93
2024-03-06T20:11:55.513Z,8.98
2024-03-06T20:14:23.569Z,8.88
2024-03-06T20:16:51.557Z,8.81
2024-03-06T20:19:21.419Z,8.78
2024-03-06T20:21:49.634Z,8.80
2024-03-06T20:24:17.829Z,8.76
2024-03-06T20:26:46.058Z,8.80
2024-03-06T20:29:14.444Z,8.84
2024-03-06T20:31:47.011Z,8.74
2024-03-06T20:34:17.405Z,8.62
2024-03-06T20:36:46.855Z,8.67
2024-03-06T20:39:16.614Z,8.60
2024-03-06T20:41:45.197Z,8.50
2024-03-06T20:44:14.141Z,8.45
2024-03-06T20:46:42.326Z,8.45
2024-03-06T20:49:10.252Z,8.49
2024-03-06T20:51:38.393Z,8.45
2024-03-06T20:54:07.594Z,8.46
2024-03-06T20:56:35.493Z,8.37
2024-03-06T20:59:03.369Z,8.29
2024-03-06T21:01:31.602Z,8.31
2024-03-06T21:03:59.539Z,8.26
2024-03-06T21:06:27.700Z,8.29
2024-03-06T21:08:55.699Z,8.19
2024-03-06T21:11:27.145Z,8.17
2024-03-06T21:13:57.784Z,8.03
2024-03-06T21:16:26.064Z,8.04
2024-03-06T21:18:53.970Z,7.93
2024-03-06T21:21:21.813Z,7.94
2024-03-06T21:23:50.201Z,8.00
2024-03-06T21:26:18.221Z,7.94
2024-03-06T21:28:47.951Z,7.93
2024-03-06T21:31:15.866Z,7.93
2024-03-06T21:33:44.589Z,7.89
2024-03-06T21:36:12.482Z,7.93
2024-03-06T21:38:40.431Z,7.81
2024-03-06T21:41:08.365Z,7.72
2024-03-06T21:43:36.256Z,7.67
2024-03-06T21:46:05.629Z,7.60
2024-03-06T21:48:33.678Z,7.54
2024-03-06T21:51:01.717Z,7.49
2024-03-06T21:53:29.757Z,7.44
2024-03-06T21:55:57.672Z,7.46
2024-03-06T21:58:26.307Z,7.44
2024-03-06T22:00:54.171Z,7.45
2024-03-06T22:03:23.952Z,7.37
2024-03-06T22:05:52.011Z,7.35
2024-03-06T22:08:19.977Z,7.30
2024-03-06T22:10:47.880Z,7.31
2024-03-06T22:13:16.026Z,7.22
2024-03-06T22:15:43.927Z,7.24
2024-03-06T22:18:12.113Z,7.27
2024-03-06T22:20:42.182Z,7.21
2024-03-06T22:23:10.124Z,7.22
2024-03-06T22:25:38.084Z,7.19
2024-03-06T22:28:06.672Z,7.20
2024-03-06T22:30:34.616Z,7.15
2024-03-06T22:33:02.592Z,7.16
2024-03-06T22:35:30.542Z,7.15
2024-03-06T22:37:59.858Z,7.04
2024-03-06T22:40:28.048Z,7.11
2024-03-06T22:42:55.912Z,7.09
2024-03-06T22:45:25.527Z,7.03
2024-03-06T22:47:54.525Z,6.99
2024-03-06T22:50:22.543Z,6.93
2024-03-06T22:52:50.395Z,6.86
2024-03-06T22:55:19.749Z,6.83
2024-03-06T22:57:47.646Z,6.74
2024-03-06T23:00:29.567Z,6.63
2024-03-06T23:02:58.100Z,6.54
2024-03-06T23:05:26.551Z,6.49
2024-03-06T23:07:55.116Z,6.39
2024-03-06T23:10:24.509Z,6.36
2024-03-06T23:12:52.425Z,6.25
2024-03-06T23:15:20.976Z,6.20
2024-03-06T23:17:49.634Z,6.20
2024-03-06T23:20:18.480Z,6.18
2024-03-06T23:22:47.278Z,6.13
2024-03-06T23:25:15.915Z,6.12
2024-03-06T23:27:46.986Z,6.09
2024-03-06T23:30:17.152Z,6.02
2024-03-06T23:32:46.237Z,5.92
2024-03-06T23:35:15.748Z,5.86
2024-03-06T23:37:44.427Z,5.84
2024-03-06T23:40:15.118Z,5.84
2024-03-06T23:42:45.694Z,5.83
2024-03-06T23:45:15.316Z,5.81
2024-03-06T23:47:45.841Z,5.80
2024-03-06T23:50:14.787Z,5.79
2024-03-06T23:52:42.706Z,5.85
2024-03-06T23:55:11.994Z,5.89
2024-03-06T23:57:40.216Z,5.95
